Medicine Hat Airport, Alberta

Past 24 Hour Conditions

This table is a summary of hourly weather conditions for the past 24 hours. This summary includes the following parameters: temperature, humidity, dew point, wind speed and direction, air pressure, visibility and/or wind chill and humidex.
Date / Time
(MDT)
Conditions Temp (°F) Humidity (%) Dew Point (°F) Wind (mph) Pressure (inches) Visibility (miles)
20 April 2014
2:00 Clear 42 57 27 SSW 10 29.8 10
1:00 Clear 41 61 29 SW 6 29.8 10
00:00 Mainly Clear 42 64 30 SSW 5 29.8 10
19 April 2014
23:00 Mostly Cloudy 45 58 31 WSW 5 29.8 10
22:00 Mostly Cloudy 48 47 29 SSW 6 29.8 10
21:00 Partly Cloudy 52 37 26 E 5 29.8 15
20:00 Partly Cloudy 54 32 25 NE 5 29.8 30
19:00 Cloudy 59 24 23 calm 29.8 30
18:00 Cloudy 60   24 23 SW 5 29.8 30
17:00 Mostly Cloudy 60   27 26 SW 7 29.8 30
16:00 Mainly Sunny 59 28 26 SSW 13 gust 21 29.9 30
15:00 Mainly Sunny 58 28 25 WSW 10 gust 19 29.9 30
14:00 Mainly Sunny 53 46 33 calm 29.9 15
13:00 Partly Cloudy 51 55 35 WSW 7 29.9 15
12:00 Mostly Cloudy 47 66 36 SSW 5 29.9 15
11:00 Mostly Cloudy 43 76 36 S 7 30.0 15
10:00 Cloudy 38 82 33 WSW 6 30.0 15
9:00 Cloudy 37 89 34 SW 6 30.0 15
8:00 Cloudy 35 91 32 W 3 30.0 15
7:00 Cloudy 34   93 32 WNW 6 30.0 15
6:00 Cloudy 34   93 33 WNW 8 29.9 10
5:00 Cloudy 34   96 33 W 13 29.9 9
4:00 Cloudy 35 97 34 NW 9 29.9 10
3:00 Cloudy 35 96 34 WNW 15 gust 21 29.9 10
2:00 Mist 35 99 35 WNW 14 29.9 6
N/A
Not available
 ↑ 
Highest temperature
 ↓ 
Lowest temperature

If you require additional historical weather information, please visit Climate Data Online.